Time;durP1;ratioP1;P1;durP2;ratioP2;P2;SDS_P1;SDS_P2;PMS_P1;PMS_P2;Temp;Humidity;BMP_temperature;BMP_pressure;BME280_temperature;BME280_humidity;BME280_pressure;Samples;Min_cycle;Max_cycle;Signal;HPM_P1;HPM_P2
2022/04/11 00:00:32;;;;;;;10.70;2.90;;;;;;;;;;5049530;28;20472;-74
2022/04/11 00:02:59;;;;;;;8.90;2.30;;;;;;;;;;5049191;28;21222;-74
2022/04/11 00:05:26;;;;;;;7.40;2.20;;;;;;;;;;5048708;28;20465;-75
2022/04/11 00:07:53;;;;;;;11.33;2.43;;;;;;;;;;5048008;28;20439;-74
2022/04/11 00:10:20;;;;;;;7.60;2.20;;;;;;;;;;5047445;28;20472;-75
2022/04/11 00:12:46;;;;;;;8.00;2.30;;;;;;;;;;5049011;28;20936;-75
2022/04/11 00:15:13;;;;;;;10.83;2.70;;;;;;;;;;5047788;28;20536;-75
2022/04/11 00:17:41;;;;;;;11.87;2.57;;;;;;;;;;5048675;28;20430;-75
2022/04/11 00:20:08;;;;;;;7.27;2.17;;;;;;;;;;5048446;28;20469;-75
2022/04/11 00:22:35;;;;;;;6.10;2.10;;;;;;;;;;5048778;28;20426;-75
2022/04/11 00:25:19;;;;;;;9.53;2.80;;;;;;;;;;5048827;28;20417;-75
2022/04/11 00:27:47;;;;;;;7.80;2.23;;;;;;;;;;5031408;28;20432;-75
2022/04/11 00:30:31;;;;;;;12.83;2.70;;;;;;;;;;5048917;28;20790;-74
2022/04/11 00:32:58;;;;;;;7.67;2.40;;;;;;;;;;5041920;28;20848;-74
2022/04/11 00:35:25;;;;;;;12.87;2.70;;;;;;;;;;5027017;28;20426;-74
2022/04/11 00:37:52;;;;;;;12.40;2.97;;;;;;;;;;5028992;28;20431;-74
2022/04/11 00:40:19;;;;;;;10.43;2.33;;;;;;;;;;5039830;28;20526;-74
2022/04/11 00:42:49;;;;;;;12.13;2.03;;;;;;;;;;5048328;28;20432;-74
2022/04/11 00:45:17;;;;;;;8.30;2.20;;;;;;;;;;5030923;28;20448;-74
2022/04/11 00:47:45;;;;;;;8.90;2.50;;;;;;;;;;5048361;28;20433;-74
2022/04/11 00:50:29;;;;;;;10.50;2.70;;;;;;;;;;5047099;28;20418;-74
2022/04/11 00:52:56;;;;;;;6.97;2.40;;;;;;;;;;5048441;28;20768;-75
2022/04/11 00:55:42;;;;;;;7.97;2.47;;;;;;;;;;5026392;28;20509;-75
2022/04/11 00:58:08;;;;;;;9.73;2.40;;;;;;;;;;5027085;28;20437;-74
2022/04/11 01:00:52;;;;;;;8.43;2.23;;;;;;;;;;5027419;28;20998;-74
2022/04/11 01:03:21;;;;;;;5.53;2.00;;;;;;;;;;5027057;28;20426;-75
2022/04/11 01:38:22;;;;;;;12.00;2.60;;;;;;;;;;5027581;28;20481;-74
2022/04/11 01:40:53;;;;;;;5.20;1.63;;;;;;;;;;5041108;28;20473;-75
2022/04/11 01:43:21;;;;;;;9.07;2.50;;;;;;;;;;5047172;28;20521;-74
2022/04/11 01:45:49;;;;;;;8.20;2.27;;;;;;;;;;5046442;28;20437;-74
2022/04/11 01:48:20;;;;;;;8.27;2.17;;;;;;;;;;5046132;28;20476;-74
2022/04/11 01:50:47;;;;;;;9.27;2.40;;;;;;;;;;5048399;28;21004;-74
2022/04/11 01:53:15;;;;;;;9.67;2.63;;;;;;;;;;5050375;28;20508;-74
2022/04/11 01:55:43;;;;;;;7.57;1.97;;;;;;;;;;5049665;28;20441;-74
2022/04/11 01:58:10;;;;;;;10.03;2.53;;;;;;;;;;5046324;28;20436;-74
2022/04/11 02:00:37;;;;;;;6.87;2.27;;;;;;;;;;5030098;28;20482;-74
2022/04/11 02:03:04;;;;;;;11.17;3.10;;;;;;;;;;5046196;28;20425;-74
2022/04/11 02:05:31;;;;;;;10.63;2.60;;;;;;;;;;5028704;28;20821;-74
2022/04/11 02:08:00;;;;;;;7.47;2.60;;;;;;;;;;5026489;28;21282;-74
2022/04/11 02:10:29;;;;;;;7.70;2.40;;;;;;;;;;5010073;28;20450;-74
2022/04/11 02:12:56;;;;;;;11.23;3.07;;;;;;;;;;5026566;28;20954;-74
2022/04/11 02:15:24;;;;;;;8.93;2.27;;;;;;;;;;5027508;28;20441;-74
2022/04/11 02:17:51;;;;;;;11.60;2.87;;;;;;;;;;5026263;28;20434;-74
2022/04/11 02:20:17;;;;;;;5.30;2.33;;;;;;;;;;5037707;28;20855;-74
2022/04/11 02:22:45;;;;;;;6.30;2.40;;;;;;;;;;5032669;28;20447;-74
2022/04/11 02:25:12;;;;;;;10.47;2.40;;;;;;;;;;5050948;28;20437;-74
2022/04/11 02:27:58;;;;;;;11.57;2.80;;;;;;;;;;5049818;28;20441;-74
2022/04/11 02:30:25;;;;;;;11.10;2.80;;;;;;;;;;5033285;28;21211;-73
2022/04/11 02:33:10;;;;;;;7.60;2.73;;;;;;;;;;5049729;28;20432;-74
2022/04/11 02:35:36;;;;;;;13.23;2.70;;;;;;;;;;5050964;28;20431;-76
2022/04/11 02:38:03;;;;;;;9.67;2.27;;;;;;;;;;5050543;28;20432;-76
2022/04/11 02:40:32;;;;;;;7.50;2.53;;;;;;;;;;5034487;28;20503;-72
2022/04/11 02:43:10;;;;;;;12.40;2.73;;;;;;;;;;5041313;28;20460;-74
2022/04/11 02:46:02;;;;;;;7.63;2.40;;;;;;;;;;5042457;28;20440;-69
2022/04/11 02:48:36;;;;;;;7.40;2.87;;;;;;;;;;5026991;28;20548;-71
2022/04/11 02:51:22;;;;;;;13.03;3.17;;;;;;;;;;5042586;28;20556;-77
2022/04/11 02:54:07;;;;;;;8.23;2.60;;;;;;;;;;5027151;28;20449;-73
2022/04/11 02:56:39;;;;;;;9.63;2.90;;;;;;;;;;5014188;28;21023;-73
2022/04/11 02:59:07;;;;;;;13.37;2.90;;;;;;;;;;5026995;28;20448;-72
2022/04/11 03:01:34;;;;;;;7.23;2.73;;;;;;;;;;5041610;28;20482;-70
2022/04/11 03:04:04;;;;;;;14.73;3.60;;;;;;;;;;5041133;28;20576;-72
2022/04/11 03:06:45;;;;;;;9.97;3.03;;;;;;;;;;5041252;28;20449;-69
2022/04/11 03:09:12;;;;;;;8.20;2.93;;;;;;;;;;5042714;28;20453;-69
2022/04/11 03:11:39;;;;;;;7.87;2.83;;;;;;;;;;5025711;28;20851;-74
2022/04/11 03:14:06;;;;;;;10.97;2.90;;;;;;;;;;5041146;28;21141;-71
2022/04/11 03:16:51;;;;;;;10.07;2.90;;;;;;;;;;5036502;28;20511;-74
2022/04/11 03:19:19;;;;;;;10.00;2.70;;;;;;;;;;5041731;28;20449;-73
2022/04/11 03:22:04;;;;;;;8.20;3.13;;;;;;;;;;5041873;28;20468;-74
2022/04/11 03:24:37;;;;;;;12.10;2.93;;;;;;;;;;5040962;28;20532;-74
2022/04/11 03:27:25;;;;;;;11.10;3.03;;;;;;;;;;5027246;28;20432;-71
2022/04/11 03:29:53;;;;;;;11.07;2.97;;;;;;;;;;5041222;28;20963;-70
2022/04/11 03:32:20;;;;;;;9.93;3.00;;;;;;;;;;5041612;28;21131;-74
2022/04/11 03:34:49;;;;;;;13.97;2.57;;;;;;;;;;5042185;28;20441;-74
2022/04/11 03:37:16;;;;;;;11.83;3.00;;;;;;;;;;5042057;28;20514;-71
2022/04/11 03:39:51;;;;;;;12.20;2.93;;;;;;;;;;5040933;28;20808;-70
2022/04/11 03:42:18;;;;;;;7.67;2.60;;;;;;;;;;5024223;28;20491;-70
2022/04/11 03:44:48;;;;;;;9.77;2.87;;;;;;;;;;5040608;28;20469;-74
2022/04/11 03:47:18;;;;;;;9.57;3.57;;;;;;;;;;5041605;28;20476;-70
2022/04/11 03:49:45;;;;;;;9.57;3.83;;;;;;;;;;5042434;28;20479;-71
2022/04/11 03:52:20;;;;;;;10.47;3.07;;;;;;;;;;5026222;28;20460;-72
2022/04/11 03:54:47;;;;;;;10.57;2.87;;;;;;;;;;5041942;28;20544;-71
2022/04/11 03:57:16;;;;;;;6.53;2.53;;;;;;;;;;5041625;28;20620;-70
2022/04/11 03:59:47;;;;;;;9.00;2.77;;;;;;;;;;5041093;28;20808;-72
2022/04/11 04:02:14;;;;;;;9.10;3.07;;;;;;;;;;5042719;28;20491;-70
2022/04/11 04:04:41;;;;;;;8.23;3.30;;;;;;;;;;5041446;28;20538;-69
2022/04/11 04:07:09;;;;;;;13.50;3.10;;;;;;;;;;5042101;28;20459;-71
2022/04/11 04:09:36;;;;;;;9.27;3.00;;;;;;;;;;5042351;28;20446;-70
2022/04/11 04:12:04;;;;;;;13.60;3.57;;;;;;;;;;5041528;28;20465;-72
2022/04/11 04:14:48;;;;;;;11.57;3.10;;;;;;;;;;5028103;28;20449;-74
2022/04/11 04:17:16;;;;;;;10.10;3.60;;;;;;;;;;5042018;28;20476;-71
2022/04/11 04:19:55;;;;;;;9.07;3.43;;;;;;;;;;5039459;28;20472;-56
2022/04/11 04:22:41;;;;;;;9.30;3.27;;;;;;;;;;5040602;28;20518;-57
2022/04/11 04:25:08;;;;;;;11.53;4.10;;;;;;;;;;5041253;28;20471;-56
2022/04/11 04:27:35;;;;;;;12.23;5.00;;;;;;;;;;5041981;28;20471;-74
2022/04/11 04:30:05;;;;;;;10.80;4.30;;;;;;;;;;5040133;28;20449;-74
2022/04/11 04:32:33;;;;;;;15.60;4.30;;;;;;;;;;5039996;28;20954;-74
2022/04/11 04:35:01;;;;;;;10.07;3.33;;;;;;;;;;5040323;28;21199;-73
2022/04/11 04:37:29;;;;;;;11.70;3.93;;;;;;;;;;5040266;28;20559;-74
2022/04/11 04:39:57;;;;;;;14.93;4.37;;;;;;;;;;5005237;28;20458;-73
2022/04/11 04:42:27;;;;;;;22.87;7.57;;;;;;;;;;5028842;28;20980;-75
2022/04/11 04:45:03;;;;;;;19.77;7.10;;;;;;;;;;5011701;28;20933;-75
2022/04/11 04:47:34;;;;;;;20.53;5.90;;;;;;;;;;5046462;28;20432;-75
2022/04/11 04:50:02;;;;;;;19.23;8.23;;;;;;;;;;5066923;28;20421;-75
2022/04/11 04:52:30;;;;;;;21.00;7.67;;;;;;;;;;5067121;28;20467;-75
2022/04/11 04:55:03;;;;;;;20.27;7.33;;;;;;;;;;5067004;28;20436;-75
2022/04/11 04:57:32;;;;;;;23.43;7.27;;;;;;;;;;5067551;28;20437;-75
2022/04/11 05:00:16;;;;;;;14.57;5.33;;;;;;;;;;5031421;28;20433;-75
2022/04/11 05:02:45;;;;;;;14.57;4.70;;;;;;;;;;5026969;28;21097;-75
2022/04/11 05:05:16;;;;;;;14.13;4.47;;;;;;;;;;5027163;28;20826;-75
2022/04/11 05:07:46;;;;;;;11.67;4.80;;;;;;;;;;5057480;28;20913;-75
2022/04/11 05:10:19;;;;;;;14.00;4.70;;;;;;;;;;5066863;28;20509;-75
2022/04/11 05:13:04;;;;;;;14.30;4.43;;;;;;;;;;5027112;28;20465;-75
2022/04/11 05:15:32;;;;;;;20.07;4.50;;;;;;;;;;5044822;28;20433;-76
2022/04/11 05:18:09;;;;;;;9.83;4.00;;;;;;;;;;5050975;28;20440;-76
2022/04/11 05:20:38;;;;;;;9.07;3.77;;;;;;;;;;5064263;28;20533;-75
2022/04/11 05:23:05;;;;;;;9.33;3.63;;;;;;;;;;5021591;28;20565;-71
2022/04/11 05:25:36;;;;;;;12.90;4.10;;;;;;;;;;5039484;28;20434;-70
2022/04/11 05:28:04;;;;;;;14.63;3.70;;;;;;;;;;5040125;28;20470;-73
2022/04/11 05:30:35;;;;;;;8.30;3.50;;;;;;;;;;5040820;28;20447;-71
2022/04/11 05:33:07;;;;;;;8.43;2.30;;;;;;;;;;5036608;28;20464;-71
2022/04/11 05:35:52;;;;;;;10.53;4.10;;;;;;;;;;5045806;28;20421;-77
2022/04/11 05:38:22;;;;;;;8.80;3.60;;;;;;;;;;5030515;28;20437;-76
2022/04/11 05:40:51;;;;;;;14.67;4.00;;;;;;;;;;5046752;28;20441;-75
2022/04/11 05:43:34;;;;;;;10.33;3.07;;;;;;;;;;5046662;28;20445;-76
2022/04/11 05:46:23;;;;;;;11.70;3.33;;;;;;;;;;5046578;28;20574;-76
2022/04/11 05:48:59;;;;;;;6.53;2.23;;;;;;;;;;5046799;28;20443;-76
2022/04/11 05:51:26;;;;;;;12.50;3.70;;;;;;;;;;5046555;28;20441;-76
2022/04/11 05:53:53;;;;;;;7.97;2.50;;;;;;;;;;5046815;28;20521;-76
2022/04/11 05:56:20;;;;;;;8.20;3.03;;;;;;;;;;5030957;28;20445;-75
2022/04/11 05:59:09;;;;;;;6.60;2.43;;;;;;;;;;5037896;28;20444;-71
2022/04/11 06:01:37;;;;;;;11.40;3.63;;;;;;;;;;5042431;28;20984;-71
2022/04/11 06:04:05;;;;;;;8.33;2.73;;;;;;;;;;5042677;28;21528;-71
2022/04/11 06:06:32;;;;;;;12.27;2.73;;;;;;;;;;5044877;28;21255;-72
2022/04/11 06:09:01;;;;;;;8.53;2.20;;;;;;;;;;5026585;28;20441;-70
2022/04/11 06:11:29;;;;;;;7.60;2.60;;;;;;;;;;5027108;28;20464;-71
2022/04/11 06:13:56;;;;;;;6.50;2.60;;;;;;;;;;5042200;28;20838;-74
2022/04/11 06:16:23;;;;;;;10.80;1.83;;;;;;;;;;5042612;28;20539;-70
2022/04/11 06:19:08;;;;;;;10.87;2.70;;;;;;;;;;5044352;28;20781;-71
2022/04/11 06:21:35;;;;;;;8.60;2.97;;;;;;;;;;5035535;28;20476;-74
2022/04/11 06:24:20;;;;;;;9.97;2.87;;;;;;;;;;5043516;28;20468;-74
2022/04/11 06:26:48;;;;;;;11.50;3.53;;;;;;;;;;5044086;28;20425;-72
2022/04/11 06:29:16;;;;;;;10.07;2.93;;;;;;;;;;5044069;28;20471;-70
2022/04/11 06:31:43;;;;;;;12.70;3.40;;;;;;;;;;5041069;28;20998;-72
2022/04/11 06:34:24;;;;;;;10.57;2.97;;;;;;;;;;5028444;28;20844;-72
2022/04/11 06:36:52;;;;;;;13.20;3.17;;;;;;;;;;5043437;28;21017;-71
2022/04/11 06:39:20;;;;;;;6.57;2.30;;;;;;;;;;5043171;28;20561;-72
2022/04/11 06:41:52;;;;;;;9.20;2.57;;;;;;;;;;5044044;28;20484;-70
2022/04/11 06:44:20;;;;;;;10.37;2.20;;;;;;;;;;5042539;28;20468;-73
2022/04/11 06:46:54;;;;;;;7.30;2.43;;;;;;;;;;5026962;28;20932;-74
2022/04/11 06:49:25;;;;;;;11.60;3.03;;;;;;;;;;5043453;28;21318;-74
2022/04/11 06:51:57;;;;;;;10.73;2.83;;;;;;;;;;5040871;28;20984;-74
2022/04/11 06:54:25;;;;;;;6.17;1.73;;;;;;;;;;5041772;28;20904;-72
2022/04/11 06:56:57;;;;;;;11.43;2.90;;;;;;;;;;5040695;28;20967;-72
2022/04/11 06:59:24;;;;;;;6.93;2.53;;;;;;;;;;5041904;28;20445;-71
2022/04/11 07:01:54;;;;;;;4.60;1.60;;;;;;;;;;5024718;28;21058;-73
2022/04/11 07:04:21;;;;;;;6.27;2.10;;;;;;;;;;5026086;28;20344;-78
2022/04/11 07:06:48;;;;;;;6.97;2.57;;;;;;;;;;5043264;28;20220;-80
2022/04/11 07:09:15;;;;;;;3.17;1.30;;;;;;;;;;5043104;28;20195;-76
2022/04/11 07:11:42;;;;;;;8.63;2.53;;;;;;;;;;5040346;28;20205;-75
2022/04/11 07:14:11;;;;;;;8.17;1.93;;;;;;;;;;5043003;28;20223;-79
2022/04/11 07:16:38;;;;;;;7.43;1.90;;;;;;;;;;5041295;28;20535;-75
2022/04/11 07:19:06;;;;;;;7.40;2.67;;;;;;;;;;5042203;28;20206;-72
2022/04/11 07:21:33;;;;;;;7.77;1.60;;;;;;;;;;5042671;28;20214;-72
2022/04/11 07:24:00;;;;;;;9.43;1.67;;;;;;;;;;5043879;28;20194;-79
2022/04/11 07:26:30;;;;;;;6.97;1.30;;;;;;;;;;5042488;28;20237;-80
2022/04/11 07:28:57;;;;;;;5.97;1.70;;;;;;;;;;5025298;28;20198;-76
2022/04/11 07:31:27;;;;;;;4.87;1.50;;;;;;;;;;5042528;28;20776;-74
2022/04/11 07:33:54;;;;;;;8.33;2.50;;;;;;;;;;5041087;28;20314;-71
2022/04/11 07:36:21;;;;;;;12.23;2.60;;;;;;;;;;5025181;28;20237;-72
2022/04/11 07:38:48;;;;;;;4.83;1.50;;;;;;;;;;5041676;28;20195;-71
2022/04/11 07:41:15;;;;;;;8.07;1.60;;;;;;;;;;5042617;28;20205;-71
2022/04/11 07:43:42;;;;;;;6.60;2.17;;;;;;;;;;5043477;28;20662;-72
2022/04/11 07:46:10;;;;;;;7.17;1.83;;;;;;;;;;5043184;28;20195;-78
2022/04/11 07:48:40;;;;;;;10.83;2.30;;;;;;;;;;5042507;28;20206;-72
2022/04/11 07:51:07;;;;;;;7.37;1.60;;;;;;;;;;5040096;28;20705;-73
2022/04/11 07:53:34;;;;;;;6.53;1.80;;;;;;;;;;5041585;28;20952;-75
2022/04/11 07:56:01;;;;;;;4.70;1.27;;;;;;;;;;5041503;28;20538;-74
2022/04/11 07:58:33;;;;;;;5.03;1.10;;;;;;;;;;5039769;28;20268;-71
2022/04/11 08:01:00;;;;;;;4.37;1.03;;;;;;;;;;5043355;28;20218;-71
2022/04/11 08:03:31;;;;;;;3.03;0.80;;;;;;;;;;5041314;28;20214;-73
2022/04/11 08:05:58;;;;;;;7.00;1.50;;;;;;;;;;5040036;28;20238;-81
2022/04/11 08:08:27;;;;;;;5.03;1.40;;;;;;;;;;5039842;28;20203;-74
2022/04/11 08:10:56;;;;;;;3.10;0.70;;;;;;;;;;5047375;28;20781;-72
2022/04/11 08:13:23;;;;;;;5.00;1.10;;;;;;;;;;5047911;28;21312;-72
2022/04/11 08:15:50;;;;;;;6.60;1.40;;;;;;;;;;5049655;28;20191;-72
2022/04/11 08:18:17;;;;;;;2.23;0.97;;;;;;;;;;5047889;28;20524;-72
2022/04/11 08:20:44;;;;;;;6.57;1.30;;;;;;;;;;5048743;28;20202;-75
2022/04/11 08:23:12;;;;;;;5.20;1.27;;;;;;;;;;5049278;28;20465;-70
2022/04/11 08:25:39;;;;;;;8.30;1.70;;;;;;;;;;5028537;28;20206;-75
2022/04/11 08:28:06;;;;;;;4.37;1.47;;;;;;;;;;5040640;28;20202;-72
2022/04/11 08:30:34;;;;;;;7.30;2.80;;;;;;;;;;5041435;28;20601;-70
2022/04/11 08:33:02;;;;;;;4.07;1.50;;;;;;;;;;5023699;28;20198;-69
2022/04/11 08:35:30;;;;;;;4.87;1.60;;;;;;;;;;5028640;28;20226;-76
2022/04/11 08:38:01;;;;;;;4.23;1.50;;;;;;;;;;5040473;28;20183;-75
2022/04/11 08:40:28;;;;;;;3.13;0.90;;;;;;;;;;5039989;28;20252;-78
2022/04/11 08:42:59;;;;;;;4.80;1.30;;;;;;;;;;5039092;28;20230;-73
2022/04/11 08:45:27;;;;;;;4.93;1.40;;;;;;;;;;5023817;28;20229;-72
2022/04/11 08:47:59;;;;;;;6.63;1.40;;;;;;;;;;5040556;28;20221;-68
2022/04/11 08:50:26;;;;;;;2.60;0.80;;;;;;;;;;5040324;28;21299;-72
2022/04/11 08:52:54;;;;;;;5.73;1.67;;;;;;;;;;5042231;28;20197;-75
2022/04/11 08:55:23;;;;;;;3.57;1.20;;;;;;;;;;5041189;28;20692;-73
2022/04/11 08:57:58;;;;;;;5.83;1.50;;;;;;;;;;5040059;28;20440;-73
2022/04/11 09:00:24;;;;;;;6.83;3.23;;;;;;;;;;5036053;28;20206;-68
2022/04/11 09:02:51;;;;;;;6.13;1.67;;;;;;;;;;5044809;28;20214;-73
2022/04/11 09:05:22;;;;;;;3.83;1.80;;;;;;;;;;5031126;28;20226;-72
2022/04/11 09:07:50;;;;;;;5.60;1.90;;;;;;;;;;5044528;28;20187;-69
2022/04/11 09:10:18;;;;;;;5.83;1.90;;;;;;;;;;5026539;28;20186;-68
2022/04/11 09:12:46;;;;;;;6.23;1.90;;;;;;;;;;5024800;28;20207;-69
2022/04/11 09:15:13;;;;;;;7.83;2.17;;;;;;;;;;5040429;28;21027;-71
2022/04/11 09:17:41;;;;;;;6.17;1.93;;;;;;;;;;5042946;28;20736;-67
2022/04/11 09:20:10;;;;;;;3.77;2.10;;;;;;;;;;5044121;28;20257;-73
2022/04/11 09:22:43;;;;;;;3.87;1.57;;;;;;;;;;5040336;28;20316;-70
2022/04/11 09:25:19;;;;;;;5.80;1.27;;;;;;;;;;5044277;28;20195;-73
2022/04/11 09:27:47;;;;;;;3.00;1.07;;;;;;;;;;5045729;28;20207;-70
2022/04/11 09:30:22;;;;;;;7.50;1.20;;;;;;;;;;5041610;28;20190;-72
2022/04/11 09:32:56;;;;;;;5.27;1.23;;;;;;;;;;5044422;28;20221;-71
2022/04/11 09:35:41;;;;;;;5.17;1.60;;;;;;;;;;5044091;28;20289;-67
2022/04/11 09:38:14;;;;;;;4.73;1.80;;;;;;;;;;5042842;28;20248;-71
2022/04/11 09:41:01;;;;;;;4.90;1.40;;;;;;;;;;5043424;28;20211;-72
2022/04/11 09:43:29;;;;;;;6.17;1.60;;;;;;;;;;5043707;28;20233;-75
2022/04/11 09:46:13;;;;;;;4.80;1.60;;;;;;;;;;5042487;28;20182;-70
2022/04/11 09:48:40;;;;;;;3.57;1.30;;;;;;;;;;5044117;28;20187;-71
2022/04/11 09:51:26;;;;;;;5.03;1.20;;;;;;;;;;5028624;28;20871;-71
2022/04/11 09:53:53;;;;;;;5.57;1.50;;;;;;;;;;5043632;28;20639;-69
2022/04/11 09:56:37;;;;;;;5.53;1.80;;;;;;;;;;5027835;28;20189;-67
2022/04/11 09:59:04;;;;;;;6.80;2.23;;;;;;;;;;5041590;28;20248;-74
2022/04/11 10:01:31;;;;;;;5.07;2.40;;;;;;;;;;5039259;28;20195;-68
2022/04/11 10:03:58;;;;;;;3.73;1.73;;;;;;;;;;5039712;28;20211;-68
2022/04/11 10:06:25;;;;;;;5.33;1.43;;;;;;;;;;5040591;28;20198;-74
2022/04/11 10:09:10;;;;;;;3.13;1.50;;;;;;;;;;5041575;28;20179;-76
2022/04/11 10:11:37;;;;;;;4.67;1.30;;;;;;;;;;5041137;28;20198;-78
2022/04/11 10:14:04;;;;;;;5.20;1.73;;;;;;;;;;5022554;28;20191;-78
2022/04/11 10:16:31;;;;;;;6.80;2.83;;;;;;;;;;5039468;28;20190;-79
2022/04/11 10:19:02;;;;;;;5.73;1.60;;;;;;;;;;5039874;28;20665;-75
2022/04/11 10:21:29;;;;;;;4.37;1.60;;;;;;;;;;5038000;28;20198;-77
2022/04/11 10:23:59;;;;;;;5.87;1.47;;;;;;;;;;5039019;28;20236;-75
2022/04/11 10:26:26;;;;;;;5.13;2.03;;;;;;;;;;5038453;28;20699;-77
2022/04/11 10:28:52;;;;;;;6.30;2.43;;;;;;;;;;5039999;28;20290;-77
2022/04/11 10:31:19;;;;;;;4.10;1.43;;;;;;;;;;5040669;28;20301;-70
2022/04/11 10:33:54;;;;;;;3.07;1.10;;;;;;;;;;5039218;28;20207;-66
2022/04/11 10:36:31;;;;;;;6.10;1.50;;;;;;;;;;5039843;28;20244;-67
2022/04/11 10:39:13;;;;;;;4.80;1.57;;;;;;;;;;5040406;28;20277;-69
2022/04/11 10:41:55;;;;;;;3.40;1.33;;;;;;;;;;5040118;28;20223;-70
2022/04/11 10:44:35;;;;;;;2.20;1.03;;;;;;;;;;5041654;28;20229;-71
2022/04/11 10:47:11;;;;;;;3.70;0.80;;;;;;;;;;5043477;28;20673;-67
2022/04/11 10:50:23;;;;;;;4.23;1.50;;;;;;;;;;5043541;28;21388;-68
2022/04/11 10:52:43;;;;;;;4.77;2.03;;;;;;;;;;5040908;28;20288;-67
2022/04/11 10:55:19;;;;;;;6.33;2.23;;;;;;;;;;5042074;28;20246;-68
2022/04/11 10:57:55;;;;;;;6.27;1.60;;;;;;;;;;5041279;28;20210;-70
2022/04/11 11:00:22;;;;;;;5.10;1.67;;;;;;;;;;5042526;28;20210;-70
2022/04/11 11:02:52;;;;;;;9.10;2.33;;;;;;;;;;5024479;28;20895;-71
2022/04/11 11:05:26;;;;;;;4.77;2.07;;;;;;;;;;5042368;28;20227;-69
2022/04/11 11:08:06;;;;;;;4.83;1.33;;;;;;;;;;5040961;28;20562;-71
2022/04/11 11:10:49;;;;;;;4.20;1.53;;;;;;;;;;5041448;28;20212;-70
2022/04/11 11:13:24;;;;;;;5.17;1.57;;;;;;;;;;5042555;28;20195;-71
2022/04/11 11:15:53;;;;;;;7.60;1.70;;;;;;;;;;5042496;28;20200;-70
2022/04/11 11:18:20;;;;;;;6.47;1.70;;;;;;;;;;5043615;28;20190;-68
2022/04/11 11:20:52;;;;;;;5.17;1.23;;;;;;;;;;5042302;28;20197;-70
2022/04/11 11:23:23;;;;;;;4.37;1.60;;;;;;;;;;5043405;28;20328;-67
2022/04/11 11:25:50;;;;;;;7.83;1.30;;;;;;;;;;5041812;28;20203;-68
2022/04/11 11:28:17;;;;;;;6.17;1.70;;;;;;;;;;5044424;28;20697;-67
2022/04/11 11:30:44;;;;;;;4.33;1.97;;;;;;;;;;5043184;28;20729;-67
2022/04/11 11:33:15;;;;;;;3.90;1.10;;;;;;;;;;5042751;28;20186;-67
2022/04/11 11:35:46;;;;;;;3.33;1.20;;;;;;;;;;5036119;28;20195;-70
2022/04/11 11:38:31;;;;;;;5.53;1.50;;;;;;;;;;5045951;28;20179;-68
2022/04/11 11:40:59;;;;;;;8.37;1.47;;;;;;;;;;5041099;28;20205;-68
2022/04/11 11:43:28;;;;;;;2.97;1.20;;;;;;;;;;5048181;28;20276;-68
2022/04/11 11:46:01;;;;;;;3.50;1.37;;;;;;;;;;5044770;28;20277;-67
2022/04/11 11:48:28;;;;;;;4.03;1.30;;;;;;;;;;5029455;28;20248;-68
2022/04/11 11:50:56;;;;;;;1.97;0.93;;;;;;;;;;5044882;28;20292;-68
2022/04/11 11:53:24;;;;;;;2.57;0.90;;;;;;;;;;5029771;28;20202;-68
2022/04/11 11:56:10;;;;;;;2.47;1.10;;;;;;;;;;5044913;28;20178;-67
2022/04/11 11:58:40;;;;;;;2.37;1.23;;;;;;;;;;5043107;28;20222;-68
2022/04/11 12:01:24;;;;;;;4.20;1.00;;;;;;;;;;5041364;28;20202;-67
2022/04/11 12:06:37;;;;;;;3.37;0.73;;;;;;;;;;5044534;28;20189;-67
2022/04/11 12:09:04;;;;;;;1.67;0.97;;;;;;;;;;5041461;28;20253;-66
2022/04/11 12:11:42;;;;;;;3.97;1.90;;;;;;;;;;5041578;28;20257;-70
2022/04/11 12:14:09;;;;;;;3.90;1.40;;;;;;;;;;5041830;28;20294;-70
2022/04/11 12:16:37;;;;;;;3.93;1.87;;;;;;;;;;5042260;28;20566;-71
2022/04/11 12:19:05;;;;;;;5.97;1.97;;;;;;;;;;5040455;28;20260;-65
2022/04/11 12:21:35;;;;;;;3.50;1.43;;;;;;;;;;5039143;28;20222;-69
2022/04/11 12:24:03;;;;;;;5.47;1.70;;;;;;;;;;5040919;28;20213;-69
2022/04/11 12:26:30;;;;;;;4.13;1.80;;;;;;;;;;5038281;28;20194;-69
2022/04/11 12:29:02;;;;;;;4.47;1.57;;;;;;;;;;5040997;28;20215;-69
2022/04/11 12:31:29;;;;;;;1.90;1.00;;;;;;;;;;5039871;28;20195;-69
2022/04/11 12:33:56;;;;;;;6.67;1.77;;;;;;;;;;5041220;28;20725;-69
2022/04/11 12:37:02;;;;;;;4.90;1.20;;;;;;;;;;5041479;28;20189;-67
2022/04/11 12:39:32;;;;;;;4.17;0.80;;;;;;;;;;5038701;28;20199;-68
2022/04/11 12:42:00;;;;;;;4.13;1.40;;;;;;;;;;5041917;28;20269;-68
2022/04/11 12:44:34;;;;;;;2.73;1.00;;;;;;;;;;5037346;28;20239;-69
2022/04/11 12:47:01;;;;;;;3.33;1.07;;;;;;;;;;5039227;28;20191;-68
2022/04/11 12:49:43;;;;;;;5.03;1.37;;;;;;;;;;5041636;28;20264;-66
2022/04/11 12:52:10;;;;;;;2.60;1.03;;;;;;;;;;5039977;28;20206;-68
2022/04/11 12:54:37;;;;;;;5.93;1.13;;;;;;;;;;5043109;28;20194;-69
2022/04/11 12:57:05;;;;;;;2.10;0.80;;;;;;;;;;5042440;28;20215;-68
2022/04/11 12:59:35;;;;;;;3.53;1.17;;;;;;;;;;5042367;28;20716;-69
2022/04/11 13:02:05;;;;;;;2.63;0.90;;;;;;;;;;5039476;28;20267;-68
2022/04/11 13:04:36;;;;;;;3.03;1.03;;;;;;;;;;5042015;28;20242;-70
2022/04/11 13:07:03;;;;;;;5.10;1.20;;;;;;;;;;5040757;28;20306;-67
2022/04/11 13:09:30;;;;;;;5.03;1.23;;;;;;;;;;5039628;28;20270;-67
2022/04/11 13:11:57;;;;;;;2.83;1.10;;;;;;;;;;5038166;28;20187;-69
2022/04/11 13:14:33;;;;;;;3.97;1.00;;;;;;;;;;5040244;28;20191;-68
2022/04/11 13:19:45;;;;;;;5.23;1.40;;;;;;;;;;5040654;28;20194;-68
2022/04/11 13:22:14;;;;;;;3.20;1.40;;;;;;;;;;5040977;28;20191;-68
2022/04/11 13:24:41;;;;;;;4.13;1.33;;;;;;;;;;5039577;28;20214;-55
2022/04/11 13:27:08;;;;;;;3.67;1.17;;;;;;;;;;5040772;28;20194;-54
2022/04/11 13:29:35;;;;;;;8.13;2.00;;;;;;;;;;5039755;28;20194;-67
2022/04/11 13:32:02;;;;;;;6.43;2.30;;;;;;;;;;5039242;28;20202;-68
2022/04/11 13:34:29;;;;;;;4.67;1.60;;;;;;;;;;5022492;28;20225;-68
2022/04/11 13:36:56;;;;;;;5.57;1.30;;;;;;;;;;5040037;28;20211;-65
2022/04/11 13:39:44;;;;;;;2.40;1.30;;;;;;;;;;5041359;28;20244;-68
2022/04/11 13:42:11;;;;;;;3.00;1.20;;;;;;;;;;5041321;28;20274;-68
2022/04/11 13:44:38;;;;;;;2.87;1.10;;;;;;;;;;5020342;28;21159;-70
2022/04/11 13:47:05;;;;;;;2.90;1.07;;;;;;;;;;5041391;28;20252;-68
2022/04/11 13:49:32;;;;;;;1.77;1.00;;;;;;;;;;5040805;28;20191;-67
2022/04/11 13:51:59;;;;;;;4.10;1.40;;;;;;;;;;5041174;28;20195;-66
2022/04/11 13:54:26;;;;;;;4.37;1.20;;;;;;;;;;5041042;28;20245;-70
2022/04/11 13:56:54;;;;;;;3.47;0.90;;;;;;;;;;5039530;28;20195;-70
2022/04/11 13:59:21;;;;;;;2.50;0.83;;;;;;;;;;5022536;28;20197;-70
2022/04/11 14:01:48;;;;;;;3.47;1.00;;;;;;;;;;5041170;28;20199;-66
2022/04/11 14:04:16;;;;;;;4.23;1.10;;;;;;;;;;5041545;28;20250;-68
2022/04/11 14:06:43;;;;;;;4.20;1.60;;;;;;;;;;5039794;28;20187;-69
2022/04/11 14:09:11;;;;;;;7.17;1.57;;;;;;;;;;5041445;28;20285;-67
2022/04/11 14:11:58;;;;;;;4.07;1.40;;;;;;;;;;5038913;28;20203;-67
2022/04/11 14:14:25;;;;;;;3.60;1.80;;;;;;;;;;5040577;28;20214;-68
2022/04/11 14:16:52;;;;;;;4.50;1.37;;;;;;;;;;5040454;28;20202;-69
2022/04/11 14:19:19;;;;;;;4.40;1.40;;;;;;;;;;5044510;28;20200;-69
2022/04/11 14:21:46;;;;;;;4.30;1.10;;;;;;;;;;5043774;28;20295;-67
2022/04/11 14:24:13;;;;;;;4.60;1.43;;;;;;;;;;5044222;28;20265;-66
2022/04/11 14:26:40;;;;;;;2.60;1.10;;;;;;;;;;5044842;28;20202;-69
2022/04/11 14:29:06;;;;;;;4.57;1.90;;;;;;;;;;5042059;28;20279;-68
2022/04/11 14:31:33;;;;;;;7.80;2.60;;;;;;;;;;5041812;28;20182;-65
2022/04/11 14:34:00;;;;;;;8.10;2.50;;;;;;;;;;5041723;28;20187;-68
2022/04/11 14:36:27;;;;;;;6.30;2.10;;;;;;;;;;5042449;28;20264;-68
2022/04/11 14:39:11;;;;;;;4.77;1.37;;;;;;;;;;5042030;28;20186;-71
2022/04/11 14:41:39;;;;;;;6.47;1.27;;;;;;;;;;5043006;28;20195;-69
2022/04/11 14:44:08;;;;;;;4.13;1.53;;;;;;;;;;5033572;28;20325;-70
2022/04/11 14:46:35;;;;;;;3.47;1.30;;;;;;;;;;5043217;28;20179;-68
2022/04/11 14:49:03;;;;;;;5.40;1.40;;;;;;;;;;5044178;28;20658;-68
2022/04/11 14:51:33;;;;;;;6.07;1.50;;;;;;;;;;5042610;28;20226;-65
2022/04/11 14:54:00;;;;;;;3.03;0.90;;;;;;;;;;5041443;28;20273;-67
2022/04/11 14:56:27;;;;;;;2.87;1.03;;;;;;;;;;5043834;28;20466;-68
2022/04/11 14:59:12;;;;;;;3.67;0.80;;;;;;;;;;5042313;28;20997;-67
2022/04/11 15:01:40;;;;;;;3.57;1.00;;;;;;;;;;5041222;28;20203;-66
2022/04/11 15:04:07;;;;;;;4.07;1.00;;;;;;;;;;5042823;28;20321;-67
2022/04/11 15:06:34;;;;;;;4.40;1.40;;;;;;;;;;5042799;28;20218;-68
2022/04/11 15:09:01;;;;;;;2.43;0.93;;;;;;;;;;5042809;28;20202;-66
2022/04/11 15:11:28;;;;;;;2.47;1.00;;;;;;;;;;5042121;28;20636;-66
2022/04/11 15:13:56;;;;;;;5.30;1.33;;;;;;;;;;5042786;28;20193;-65
2022/04/11 15:16:23;;;;;;;3.77;1.17;;;;;;;;;;5041247;28;20202;-65
2022/04/11 15:18:52;;;;;;;5.90;1.70;;;;;;;;;;5043828;28;20175;-67
2022/04/11 15:21:19;;;;;;;5.10;1.40;;;;;;;;;;5039884;28;20261;-67
2022/04/11 15:23:47;;;;;;;3.03;1.00;;;;;;;;;;5043426;28;20217;-66
2022/04/11 15:26:31;;;;;;;5.63;1.50;;;;;;;;;;5043462;28;20198;-66
2022/04/11 15:28:58;;;;;;;3.90;1.63;;;;;;;;;;5041815;28;20202;-67
2022/04/11 15:31:26;;;;;;;4.93;1.90;;;;;;;;;;5043010;28;20198;-67
2022/04/11 15:33:54;;;;;;;5.47;1.70;;;;;;;;;;5044175;28;20278;-68
2022/04/11 15:36:21;;;;;;;5.23;1.43;;;;;;;;;;5041822;28;20227;-69
2022/04/11 15:38:48;;;;;;;3.83;1.30;;;;;;;;;;5044070;28;20712;-68